Lexington, Missouri
Current Conditions -  °F | °C
As of 1:15 AM on Thursday 23 Oct 2014 (Local Time) from KGPH Reporting Station
Clear Clear  
Wind Chill: 14°   Ceiling: Unl
Heat Index: 14°   Visibility: 10mi
Dew Point:   Wind: 6mph
Humidity: 67%   Direction: 130°SE
Pressure: 30.11"   Gusts: NA
Location:  39.18°N, 93.88°W
Report Text: KGPH 230615Z AUTO 13005KT 10SM CLR 14/08 A3011 RMK AO2
Loading
Personal Weather Stations






























Interactive Weather Map
Tropical Storm Tracking
New forecast layout! Learn more

10-Day Weather Forecast

Advertisements
Track Severe Weather on mobile